createdAt,value
2019-01-20T00:00:56.239Z,86.48
2019-01-20T00:03:24.937Z,87.52
2019-01-20T00:05:53.597Z,88.74
2019-01-20T00:08:22.307Z,89.46
2019-01-20T00:10:50.933Z,89.15
2019-01-20T00:13:19.652Z,88.16
2019-01-20T00:15:48.349Z,86.80
2019-01-20T00:18:17.009Z,86.11
2019-01-20T00:21:04.932Z,85.86
2019-01-20T00:23:33.654Z,84.89
2019-01-20T00:26:02.309Z,84.85
2019-01-20T00:28:31.006Z,85.80
2019-01-20T00:30:59.701Z,84.91
2019-01-20T00:33:28.338Z,84.85
2019-01-20T00:35:57.073Z,85.01
2019-01-20T00:38:25.866Z,84.65
2019-01-20T00:40:54.497Z,83.91
2019-01-20T00:43:23.118Z,84.00
2019-01-20T00:45:51.798Z,83.90
2019-01-20T00:48:20.565Z,84.22
2019-01-20T00:50:49.285Z,84.28
2019-01-20T00:53:17.898Z,85.44
2019-01-20T00:55:46.633Z,86.21
2019-01-20T00:58:15.337Z,86.73
2019-01-20T01:00:44.112Z,88.27
2019-01-20T01:03:12.825Z,89.06
2019-01-20T01:05:41.569Z,89.35
2019-01-20T01:08:10.350Z,89.25
2019-01-20T01:10:39.243Z,89.65
2019-01-20T01:13:08.031Z,89.86
2019-01-20T01:15:36.757Z,89.99
2019-01-20T01:18:05.462Z,90.76
2019-01-20T01:20:34.085Z,90.87
2019-01-20T01:23:02.855Z,91.36
2019-01-20T01:25:31.485Z,90.72
2019-01-20T01:28:00.152Z,89.53
2019-01-20T01:30:28.862Z,88.72
2019-01-20T01:32:57.501Z,87.88
2019-01-20T01:35:26.198Z,87.09
2019-01-20T01:37:54.892Z,86.18
2019-01-20T01:40:23.599Z,85.84
2019-01-20T01:42:52.243Z,85.11
2019-01-20T01:45:21.409Z,85.39
2019-01-20T01:47:50.138Z,85.19
2019-01-20T01:50:19.244Z,85.02
2019-01-20T01:52:48.005Z,84.15
2019-01-20T01:55:16.872Z,83.54
2019-01-20T01:57:45.564Z,82.76
2019-01-20T02:03:49.416Z,82.21
2019-01-20T02:06:18.140Z,81.59
2019-01-20T02:08:46.816Z,81.24
2019-01-20T02:11:15.420Z,81.20
2019-01-20T02:13:44.097Z,81.46
2019-01-20T02:16:12.780Z,81.42
2019-01-20T02:18:41.446Z,81.17
2019-01-20T02:21:10.193Z,80.86
2019-01-20T02:23:38.964Z,80.96
2019-01-20T02:26:07.682Z,80.73
2019-01-20T02:28:36.335Z,81.05
2019-01-20T02:31:05.047Z,80.98
2019-01-20T02:33:33.668Z,81.04
2019-01-20T02:36:02.282Z,81.01
2019-01-20T02:38:30.916Z,80.63
2019-01-20T02:40:59.551Z,80.41
2019-01-20T02:43:47.400Z,79.99
2019-01-20T02:46:16.159Z,79.80
2019-01-20T02:48:44.937Z,79.43
2019-01-20T02:51:13.493Z,79.71
2019-01-20T02:53:42.167Z,79.47
2019-01-20T02:56:10.862Z,79.97
2019-01-20T02:58:58.703Z,80.69
2019-01-20T03:01:27.334Z,81.17
2019-01-20T03:03:56.005Z,80.74
2019-01-20T03:06:24.693Z,80.57
2019-01-20T03:08:53.334Z,80.39
2019-01-20T03:11:21.966Z,80.15
2019-01-20T03:13:50.689Z,79.98
2019-01-20T03:16:19.392Z,79.73
2019-01-20T03:21:37.446Z,80.67
2019-01-20T03:24:06.270Z,80.62
2019-01-20T03:26:34.933Z,80.39
2019-01-20T03:29:03.536Z,80.79
2019-01-20T03:31:32.292Z,80.95
2019-01-20T03:34:00.976Z,80.70
2019-01-20T03:36:29.659Z,80.29
2019-01-20T03:38:58.356Z,80.43
2019-01-20T03:42:11.906Z,80.81
2019-01-20T03:44:35.165Z,80.87
2019-01-20T03:47:03.867Z,80.82
2019-01-20T03:49:32.561Z,80.96
2019-01-20T03:52:01.190Z,80.75
2019-01-20T03:54:29.799Z,80.77
2019-01-20T03:56:58.434Z,80.75
2019-01-20T03:59:27.177Z,80.93
2019-01-20T04:01:55.866Z,80.73
2019-01-20T04:04:24.500Z,80.80
2019-01-20T04:06:53.162Z,80.91
2019-01-20T04:09:21.845Z,81.16
2019-01-20T04:11:50.476Z,81.01
2019-01-20T04:14:19.135Z,80.76
2019-01-20T04:16:47.774Z,80.57
2019-01-20T04:19:16.393Z,80.87
2019-01-20T04:21:45.111Z,80.57
2019-01-20T04:24:13.725Z,80.71
2019-01-20T04:26:42.414Z,81.08
2019-01-20T04:29:11.001Z,81.58
2019-01-20T04:31:39.648Z,81.53
2019-01-20T04:34:08.273Z,81.47
2019-01-20T04:36:36.990Z,81.79
2019-01-20T04:39:07.389Z,81.11
2019-01-20T04:41:36.241Z,81.41
2019-01-20T04:47:19.021Z,81.29
2019-01-20T04:49:47.633Z,81.03
2019-01-20T04:52:16.279Z,81.19
2019-01-20T04:54:45.004Z,81.28
2019-01-20T04:59:49.232Z,80.95
2019-01-20T05:02:17.863Z,81.00
2019-01-20T05:04:47.210Z,80.86
2019-01-20T05:07:16.926Z,80.86
2019-01-20T05:09:45.534Z,80.82
2019-01-20T05:12:14.177Z,81.14
2019-01-20T05:14:42.781Z,81.31
2019-01-20T05:17:11.456Z,81.21
2019-01-20T05:19:40.168Z,81.35
2019-01-20T05:22:08.801Z,82.20
2019-01-20T05:24:37.484Z,81.77
2019-01-20T05:27:06.102Z,81.70
2019-01-20T05:29:34.765Z,81.86
2019-01-20T05:32:03.451Z,82.02
2019-01-20T05:34:32.106Z,81.79
2019-01-20T05:37:00.735Z,81.76
2019-01-20T05:39:29.357Z,82.00
2019-01-20T05:41:57.972Z,81.84
2019-01-20T05:44:26.599Z,81.70
2019-01-20T05:46:55.240Z,82.02
2019-01-20T05:49:23.869Z,82.33
2019-01-20T05:51:52.481Z,82.12
2019-01-20T05:54:21.110Z,82.21
2019-01-20T05:56:49.722Z,82.22
2019-01-20T05:59:18.382Z,82.19
2019-01-20T06:01:46.992Z,82.09
2019-01-20T06:04:15.685Z,81.59
2019-01-20T06:06:44.300Z,81.68
2019-01-20T06:09:12.998Z,81.73
2019-01-20T06:11:41.720Z,81.90
2019-01-20T06:14:10.373Z,82.19
2019-01-20T06:16:39.059Z,82.14
2019-01-20T06:19:07.677Z,82.19
2019-01-20T06:21:36.303Z,82.32
2019-01-20T06:24:05.045Z,82.08
2019-01-20T06:26:33.657Z,81.78
2019-01-20T06:29:02.282Z,82.12
2019-01-20T06:31:30.917Z,82.14
2019-01-20T06:33:59.593Z,82.27
2019-01-20T06:36:28.230Z,82.14
2019-01-20T06:38:56.890Z,82.42
2019-01-20T06:41:25.513Z,82.33
2019-01-20T06:43:54.155Z,82.13
2019-01-20T06:46:22.777Z,82.32
2019-01-20T06:48:51.397Z,82.45
2019-01-20T06:51:40.662Z,82.38
2019-01-20T06:54:09.287Z,82.18
2019-01-20T06:56:37.929Z,82.11
2019-01-20T06:59:06.578Z,81.99
2019-01-20T07:01:35.197Z,82.23
2019-01-20T07:04:23.079Z,82.33
2019-01-20T07:06:51.785Z,82.33
2019-01-20T07:09:20.484Z,82.24
2019-01-20T07:11:49.101Z,82.48
2019-01-20T07:14:17.783Z,82.50
2019-01-20T07:16:46.409Z,82.60
2019-01-20T07:19:15.168Z,82.80
2019-01-20T07:21:43.793Z,82.61
2019-01-20T07:24:12.429Z,82.82
2019-01-20T07:26:41.050Z,82.95
2019-01-20T07:29:09.681Z,82.95
2019-01-20T07:31:38.359Z,82.47
2019-01-20T07:34:06.962Z,82.68
2019-01-20T07:36:35.606Z,83.09
2019-01-20T07:42:05.871Z,82.89
2019-01-20T07:44:34.534Z,82.88
2019-01-20T07:47:03.210Z,82.65
2019-01-20T07:49:31.851Z,83.02
2019-01-20T07:52:00.543Z,82.79
2019-01-20T07:54:29.183Z,82.73
2019-01-20T07:56:57.820Z,82.93
2019-01-20T07:59:26.457Z,82.93
2019-01-20T08:01:55.113Z,82.84
2019-01-20T08:04:23.764Z,82.65
2019-01-20T08:06:52.403Z,82.68
2019-01-20T08:09:21.093Z,82.94
2019-01-20T08:11:49.824Z,82.93
2019-01-20T08:14:18.425Z,83.15
2019-01-20T08:16:47.064Z,83.11
2019-01-20T08:19:15.871Z,83.22
2019-01-20T08:21:44.663Z,83.65
2019-01-20T08:24:13.294Z,83.71
2019-01-20T08:26:41.949Z,83.89
2019-01-20T08:29:12.415Z,83.66
2019-01-20T08:31:41.039Z,83.41
2019-01-20T08:34:09.648Z,82.99
2019-01-20T08:36:38.311Z,83.20
2019-01-20T08:39:47.222Z,82.97
2019-01-20T08:42:15.964Z,83.05
2019-01-20T08:44:45.585Z,83.00
2019-01-20T08:47:38.714Z,82.96
2019-01-20T08:50:26.559Z,82.64
2019-01-20T08:52:55.208Z,82.28
2019-01-20T08:55:23.996Z,82.69
2019-01-20T08:57:52.648Z,82.52
2019-01-20T09:00:21.339Z,82.64
2019-01-20T09:02:49.977Z,82.75
2019-01-20T09:05:18.657Z,82.59
2019-01-20T09:07:47.456Z,82.68
2019-01-20T09:10:35.435Z,82.98
2019-01-20T09:15:43.384Z,82.61
2019-01-20T09:18:12.071Z,82.55
2019-01-20T09:20:40.708Z,82.62
2019-01-20T09:23:09.350Z,82.62
2019-01-20T09:25:38.052Z,81.83
2019-01-20T09:28:06.892Z,81.46
2019-01-20T09:30:35.702Z,81.62
2019-01-20T09:33:04.781Z,81.84
2019-01-20T09:35:33.423Z,81.84
2019-01-20T09:38:02.078Z,81.38
2019-01-20T09:40:30.809Z,80.84
2019-01-20T09:42:59.523Z,80.77
2019-01-20T09:45:30.161Z,80.74
2019-01-20T09:47:59.091Z,80.51
2019-01-20T09:50:27.859Z,80.51
2019-01-20T09:52:56.643Z,80.37
2019-01-20T09:55:25.398Z,79.66
2019-01-20T09:57:54.071Z,79.69
2019-01-20T10:00:24.513Z,79.63
2019-01-20T10:02:53.315Z,79.56
2019-01-20T10:05:22.057Z,79.52
2019-01-20T10:08:11.543Z,79.70
2019-01-20T10:10:40.220Z,79.94
2019-01-20T10:13:08.896Z,79.56
2019-01-20T10:15:37.733Z,78.60
2019-01-20T10:18:06.471Z,78.19
2019-01-20T10:20:35.275Z,78.78
2019-01-20T10:23:04.108Z,78.39
2019-01-20T10:25:32.747Z,78.41
2019-01-20T10:28:01.476Z,78.04
2019-01-20T10:30:49.366Z,78.27
2019-01-20T10:33:18.023Z,78.04
2019-01-20T10:36:05.712Z,78.02
2019-01-20T10:38:37.203Z,78.12
2019-01-20T10:41:05.198Z,77.70
2019-01-20T10:43:33.914Z,77.57
2019-01-20T10:46:02.536Z,76.84
2019-01-20T10:48:31.194Z,76.78
2019-01-20T10:50:59.988Z,76.65
2019-01-20T10:53:28.689Z,76.84
2019-01-20T10:55:57.398Z,77.01
2019-01-20T10:58:26.249Z,76.65
2019-01-20T11:00:54.897Z,76.63
2019-01-20T11:03:23.754Z,76.89
2019-01-20T11:05:52.488Z,76.58
2019-01-20T11:08:23.576Z,76.76
2019-01-20T11:10:52.269Z,76.35
2019-01-20T11:13:20.905Z,75.94
2019-01-20T11:15:49.569Z,76.29
2019-01-20T11:18:18.395Z,76.28
2019-01-20T11:20:47.187Z,76.29
2019-01-20T11:23:16.048Z,76.29
2019-01-20T11:25:44.791Z,75.96
2019-01-20T11:28:13.618Z,75.48
2019-01-20T11:30:42.597Z,75.48
2019-01-20T11:33:11.251Z,75.53
2019-01-20T11:35:39.941Z,75.99
2019-01-20T11:38:08.648Z,75.75
2019-01-20T11:40:37.340Z,75.86
2019-01-20T11:43:06.041Z,75.98
2019-01-20T11:45:34.867Z,75.77
2019-01-20T11:48:22.754Z,75.97
2019-01-20T11:50:51.537Z,75.76
2019-01-20T11:53:20.194Z,75.69
2019-01-20T11:55:48.883Z,75.76
2019-01-20T11:58:17.681Z,75.04
2019-01-20T12:00:46.385Z,75.38
2019-01-20T12:03:15.199Z,75.02
2019-01-20T12:05:45.721Z,75.19
2019-01-20T12:08:14.712Z,75.02
2019-01-20T12:10:43.518Z,74.52
2019-01-20T12:13:31.402Z,74.86
2019-01-20T12:16:00.096Z,74.11
2019-01-20T12:18:28.808Z,74.04
2019-01-20T12:20:57.541Z,74.01
2019-01-20T12:23:26.291Z,73.71
2019-01-20T12:25:55.077Z,73.69
2019-01-20T12:28:23.887Z,73.49
2019-01-20T12:30:52.667Z,72.61
2019-01-20T12:33:21.269Z,71.26
2019-01-20T12:35:50.017Z,71.71
2019-01-20T12:38:18.777Z,71.51
2019-01-20T12:40:48.213Z,72.33
2019-01-20T12:43:16.925Z,72.14
2019-01-20T12:45:45.577Z,72.38
2019-01-20T12:48:14.330Z,72.02
2019-01-20T12:50:43.105Z,71.51
2019-01-20T12:53:11.945Z,71.32
2019-01-20T12:55:40.589Z,72.30
2019-01-20T12:58:49.004Z,71.91
2019-01-20T13:01:17.668Z,71.21
2019-01-20T13:03:46.312Z,71.37
2019-01-20T13:06:14.977Z,71.45
2019-01-20T13:08:43.656Z,71.50
2019-01-20T13:11:12.448Z,71.34
2019-01-20T13:13:41.187Z,71.70
2019-01-20T13:16:09.836Z,71.74
2019-01-20T13:18:38.578Z,71.04
2019-01-20T13:21:08.117Z,71.00
2019-01-20T13:23:37.745Z,70.95
2019-01-20T13:26:06.472Z,70.96
2019-01-20T13:28:35.135Z,70.72
2019-01-20T13:31:03.840Z,70.91
2019-01-20T13:33:32.504Z,70.37
2019-01-20T13:36:07.118Z,70.68
2019-01-20T13:38:31.603Z,70.88
2019-01-20T13:41:21.027Z,70.68
2019-01-20T13:43:49.694Z,70.99
2019-01-20T13:46:18.334Z,70.70
2019-01-20T13:48:46.984Z,70.28
2019-01-20T13:51:15.640Z,70.52
2019-01-20T13:54:24.071Z,70.44
2019-01-20T13:56:52.701Z,70.00
2019-01-20T13:59:21.383Z,69.46
2019-01-20T14:01:50.205Z,69.90
2019-01-20T14:04:18.848Z,70.27
2019-01-20T14:06:47.563Z,69.55
2019-01-20T14:09:16.281Z,69.79
2019-01-20T14:11:44.930Z,69.49
2019-01-20T14:14:13.621Z,69.41
2019-01-20T14:16:42.246Z,69.52
2019-01-20T14:19:10.959Z,69.55
2019-01-20T14:21:39.660Z,68.87
2019-01-20T14:24:08.351Z,69.39
2019-01-20T14:26:57.765Z,69.40
2019-01-20T14:29:26.402Z,68.83
2019-01-20T14:31:55.052Z,68.89
2019-01-20T14:34:23.757Z,69.01
2019-01-20T14:36:52.424Z,68.90
2019-01-20T14:39:21.102Z,68.47
2019-01-20T14:41:49.816Z,69.10
2019-01-20T14:44:18.457Z,69.24
2019-01-20T14:46:47.099Z,69.33
2019-01-20T14:49:15.781Z,68.76
2019-01-20T14:51:44.490Z,68.64
2019-01-20T14:54:13.210Z,68.88
2019-01-20T14:56:41.857Z,69.24
2019-01-20T14:59:10.492Z,69.47
2019-01-20T15:01:39.225Z,69.63
2019-01-20T15:04:07.890Z,70.14
2019-01-20T15:06:36.524Z,70.52
2019-01-20T15:09:46.634Z,70.69
2019-01-20T15:12:15.270Z,71.00
2019-01-20T15:14:43.995Z,71.00
2019-01-20T15:17:12.662Z,70.59
2019-01-20T15:19:41.277Z,71.32
2019-01-20T15:22:10.442Z,71.07
2019-01-20T15:24:40.317Z,71.29
2019-01-20T15:27:08.952Z,72.00
2019-01-20T15:29:37.716Z,71.45
2019-01-20T15:32:06.393Z,71.63
2019-01-20T15:34:35.045Z,71.76
2019-01-20T15:37:03.791Z,71.96
2019-01-20T15:42:27.683Z,71.85
2019-01-20T15:44:56.349Z,72.01
2019-01-20T15:47:25.177Z,72.49
2019-01-20T15:49:55.766Z,72.76
2019-01-20T15:52:24.378Z,72.70
2019-01-20T15:54:53.118Z,72.78
2019-01-20T15:57:21.835Z,72.74
2019-01-20T15:59:50.500Z,72.82
2019-01-20T16:02:19.120Z,72.97
2019-01-20T16:04:47.858Z,72.91
2019-01-20T16:10:30.340Z,73.48
2019-01-20T16:12:58.976Z,73.57
2019-01-20T16:15:37.603Z,73.55
2019-01-20T16:18:06.729Z,73.85
2019-01-20T16:20:35.439Z,73.54
2019-01-20T16:23:25.486Z,73.97
2019-01-20T16:28:30.553Z,74.01
2019-01-20T16:30:59.273Z,74.57
2019-01-20T16:33:28.670Z,75.03
2019-01-20T16:36:24.232Z,75.09
2019-01-20T16:41:50.018Z,76.16
2019-01-20T16:44:20.415Z,76.25
2019-01-20T16:46:49.949Z,76.34
2019-01-20T16:49:19.097Z,76.48
2019-01-20T16:51:48.524Z,76.28
2019-01-20T16:54:17.634Z,76.50
2019-01-20T16:56:47.327Z,76.35
2019-01-20T16:59:16.237Z,76.37
2019-01-20T17:01:45.194Z,76.15
2019-01-20T17:04:14.435Z,76.42
2019-01-20T17:06:43.686Z,76.55
2019-01-20T17:17:49.839Z,77.46
2019-01-20T17:20:18.892Z,77.42
2019-01-20T17:23:27.417Z,77.60
2019-01-20T17:26:15.487Z,77.74
2019-01-20T17:28:44.424Z,78.05
2019-01-20T17:31:14.701Z,78.33
2019-01-20T17:33:45.311Z,78.18
2019-01-20T17:36:15.478Z,78.74
2019-01-20T17:38:44.349Z,78.33
2019-01-20T17:41:13.231Z,78.34
2019-01-20T17:43:42.081Z,78.38
2019-01-20T17:46:10.962Z,78.53
2019-01-20T17:48:40.134Z,78.80
2019-01-20T17:51:09.193Z,78.83
2019-01-20T17:53:37.967Z,78.86
2019-01-20T17:56:06.842Z,78.93
2019-01-20T17:58:35.721Z,78.77
2019-01-20T18:01:04.964Z,79.17
2019-01-20T18:03:33.917Z,79.52
2019-01-20T18:06:03.114Z,79.87
2019-01-20T18:08:52.944Z,80.07
2019-01-20T18:14:34.451Z,80.86
2019-01-20T18:17:05.636Z,81.31
2019-01-20T18:19:34.766Z,82.40
2019-01-20T18:22:25.199Z,82.96
2019-01-20T18:24:54.268Z,83.38
2019-01-20T18:27:42.299Z,83.36
2019-01-20T18:33:14.372Z,84.56
2019-01-20T18:35:43.308Z,84.55
2019-01-20T18:38:12.332Z,84.68
2019-01-20T18:40:41.308Z,84.99
2019-01-20T18:43:49.837Z,85.51
2019-01-20T18:46:18.721Z,85.49
2019-01-20T18:48:47.724Z,85.56
2019-01-20T18:51:17.232Z,85.74
2019-01-20T18:53:46.530Z,86.03
2019-01-20T18:56:19.775Z,85.64
2019-01-20T19:04:25.213Z,87.04
2019-01-20T19:06:54.162Z,87.94
2019-01-20T19:09:26.629Z,88.11
2019-01-20T19:11:55.543Z,88.08
2019-01-20T19:21:07.009Z,86.69
2019-01-20T19:26:52.954Z,87.49
2019-01-20T19:29:41.075Z,87.69
2019-01-20T19:32:13.573Z,87.79
2019-01-20T19:34:42.733Z,87.55
2019-01-20T19:40:32.530Z,88.88
2019-01-20T19:43:01.528Z,88.64
2019-01-20T19:57:13.978Z,88.60
2019-01-20T19:59:43.822Z,88.72
2019-01-20T20:02:13.719Z,89.27
2019-01-20T20:04:42.893Z,90.47
2019-01-20T20:07:17.847Z,90.71
2019-01-20T20:12:42.783Z,91.31
2019-01-20T20:18:15.336Z,91.20
2019-01-20T20:20:44.110Z,90.88
2019-01-20T20:23:12.947Z,91.03
2019-01-20T20:25:43.159Z,90.73
2019-01-20T20:28:14.400Z,90.78
2019-01-20T20:30:43.649Z,90.80
2019-01-20T20:36:19.706Z,91.73
2019-01-20T20:39:13.708Z,91.42
2019-01-20T20:42:02.069Z,91.27
2019-01-20T20:44:49.917Z,91.68
2019-01-20T20:47:18.854Z,91.73
2019-01-20T20:50:12.994Z,92.01
2019-01-20T20:53:11.705Z,91.87
2019-01-20T20:55:16.855Z,92.00
2019-01-20T21:00:54.357Z,92.75
2019-01-20T21:03:46.395Z,92.87
2019-01-20T21:06:17.242Z,93.02
2019-01-20T21:08:49.574Z,93.28
2019-01-20T21:20:39.842Z,92.86
2019-01-20T21:23:12.316Z,92.52
2019-01-20T21:25:39.887Z,92.60
2019-01-20T21:29:04.360Z,92.66
2019-01-20T21:36:42.343Z,93.61
2019-01-20T21:39:12.235Z,94.22
2019-01-20T21:41:41.280Z,93.97
2019-01-20T21:44:31.616Z,93.72
2019-01-20T21:47:02.969Z,92.73
2019-01-20T21:49:51.776Z,92.60
2019-01-20T21:52:45.072Z,92.43
2019-01-20T21:55:14.230Z,91.56
2019-01-20T21:58:15.952Z,91.20
2019-01-20T22:03:27.372Z,91.76
2019-01-20T22:08:47.412Z,92.33
2019-01-20T22:11:35.235Z,92.12
2019-01-20T22:16:40.306Z,89.42
2019-01-20T22:19:28.460Z,89.31
2019-01-20T22:22:16.308Z,88.43
2019-01-20T22:25:27.128Z,88.06
2019-01-20T22:27:56.595Z,87.88
2019-01-20T22:30:27.331Z,87.57
2019-01-20T22:33:15.139Z,87.07
2019-01-20T22:35:44.312Z,86.96
2019-01-20T22:38:13.121Z,86.25
2019-01-20T22:40:42.595Z,86.05
2019-01-20T22:43:11.327Z,85.90
2019-01-20T22:48:31.439Z,85.74
2019-01-20T22:51:00.423Z,85.70
2019-01-20T22:56:36.871Z,85.94
2019-01-20T22:59:05.744Z,85.87
2019-01-20T23:01:57.888Z,85.75
2019-01-20T23:07:21.864Z,85.24
2019-01-20T23:09:51.672Z,85.23
2019-01-20T23:12:20.534Z,85.19
2019-01-20T23:20:57.727Z,84.93
2019-01-20T23:23:28.869Z,84.81
2019-01-20T23:25:57.717Z,85.29
2019-01-20T23:28:27.564Z,85.22
2019-01-20T23:30:59.483Z,84.95
2019-01-20T23:33:28.657Z,84.95
2019-01-20T23:36:00.266Z,84.54
2019-01-20T23:38:29.297Z,84.76
2019-01-20T23:41:37.897Z,84.92
2019-01-20T23:44:07.009Z,84.61
2019-01-20T23:46:36.239Z,84.50
2019-01-20T23:49:05.115Z,84.82
2019-01-20T23:51:33.945Z,84.67
2019-01-20T23:54:02.764Z,84.46
2019-01-20T23:56:32.883Z,84.77
